sensor_id;sensor_type;location;lat;lon;timestamp;P1;durP1;ratioP1;P2;durP2;ratioP2
15096;SDS011;7649;52.084;7.478;2023-11-21T00:00:08;15.83;;;10.97;;
15096;SDS011;7649;52.084;7.478;2023-11-21T00:02:41;16.47;;;10.73;;
15096;SDS011;7649;52.084;7.478;2023-11-21T00:05:10;14.03;;;9.77;;
15096;SDS011;7649;52.084;7.478;2023-11-21T00:07:40;14.17;;;11.03;;
15096;SDS011;7649;52.084;7.478;2023-11-21T00:10:10;13.93;;;10.03;;
15096;SDS011;7649;52.084;7.478;2023-11-21T00:12:40;13.10;;;10.93;;
15096;SDS011;7649;52.084;7.478;2023-11-21T00:15:09;13.60;;;10.33;;
15096;SDS011;7649;52.084;7.478;2023-11-21T00:17:38;15.67;;;10.60;;
15096;SDS011;7649;52.084;7.478;2023-11-21T00:20:09;12.10;;;10.33;;
15096;SDS011;7649;52.084;7.478;2023-11-21T00:22:40;14.50;;;10.30;;
15096;SDS011;7649;52.084;7.478;2023-11-21T00:25:09;19.10;;;12.20;;
15096;SDS011;7649;52.084;7.478;2023-11-21T00:27:39;13.70;;;10.97;;
15096;SDS011;7649;52.084;7.478;2023-11-21T00:30:15;14.13;;;10.33;;
15096;SDS011;7649;52.084;7.478;2023-11-21T00:32:43;17.43;;;11.83;;
15096;SDS011;7649;52.084;7.478;2023-11-21T00:35:13;18.10;;;11.80;;
15096;SDS011;7649;52.084;7.478;2023-11-21T00:37:42;15.43;;;10.77;;
15096;SDS011;7649;52.084;7.478;2023-11-21T00:40:11;15.57;;;11.27;;
15096;SDS011;7649;52.084;7.478;2023-11-21T00:42:41;14.43;;;11.20;;
15096;SDS011;7649;52.084;7.478;2023-11-21T00:45:10;14.17;;;10.40;;
15096;SDS011;7649;52.084;7.478;2023-11-21T00:47:38;16.57;;;11.40;;
15096;SDS011;7649;52.084;7.478;2023-11-21T00:50:08;15.63;;;10.97;;
15096;SDS011;7649;52.084;7.478;2023-11-21T00:52:38;13.03;;;10.83;;
15096;SDS011;7649;52.084;7.478;2023-11-21T00:55:07;12.63;;;11.10;;
15096;SDS011;7649;52.084;7.478;2023-11-21T00:57:38;14.87;;;11.30;;
15096;SDS011;7649;52.084;7.478;2023-11-21T01:00:09;15.87;;;11.17;;
15096;SDS011;7649;52.084;7.478;2023-11-21T01:02:41;17.43;;;11.43;;
15096;SDS011;7649;52.084;7.478;2023-11-21T01:05:19;14.37;;;11.20;;
15096;SDS011;7649;52.084;7.478;2023-11-21T01:07:49;14.60;;;10.60;;
15096;SDS011;7649;52.084;7.478;2023-11-21T01:10:18;13.97;;;10.00;;
15096;SDS011;7649;52.084;7.478;2023-11-21T01:12:47;14.60;;;10.90;;
15096;SDS011;7649;52.084;7.478;2023-11-21T01:15:16;17.47;;;11.93;;
15096;SDS011;7649;52.084;7.478;2023-11-21T01:17:44;14.17;;;11.07;;
15096;SDS011;7649;52.084;7.478;2023-11-21T01:20:13;14.40;;;11.53;;
15096;SDS011;7649;52.084;7.478;2023-11-21T01:22:42;17.07;;;10.97;;
15096;SDS011;7649;52.084;7.478;2023-11-21T01:25:12;20.40;;;12.80;;
15096;SDS011;7649;52.084;7.478;2023-11-21T01:27:41;16.20;;;11.03;;
15096;SDS011;7649;52.084;7.478;2023-11-21T01:30:10;16.27;;;11.87;;
15096;SDS011;7649;52.084;7.478;2023-11-21T01:32:38;15.37;;;11.80;;
15096;SDS011;7649;52.084;7.478;2023-11-21T01:35:07;18.23;;;11.50;;
15096;SDS011;7649;52.084;7.478;2023-11-21T01:37:37;20.00;;;12.20;;
15096;SDS011;7649;52.084;7.478;2023-11-21T01:40:08;17.13;;;12.43;;
15096;SDS011;7649;52.084;7.478;2023-11-21T01:42:37;17.50;;;11.87;;
15096;SDS011;7649;52.084;7.478;2023-11-21T01:45:06;20.70;;;11.70;;
15096;SDS011;7649;52.084;7.478;2023-11-21T01:47:36;19.03;;;11.93;;
15096;SDS011;7649;52.084;7.478;2023-11-21T01:50:06;16.07;;;11.87;;
15096;SDS011;7649;52.084;7.478;2023-11-21T01:52:37;15.83;;;11.23;;
15096;SDS011;7649;52.084;7.478;2023-11-21T01:55:07;15.17;;;11.53;;
15096;SDS011;7649;52.084;7.478;2023-11-21T01:57:38;19.13;;;11.57;;
15096;SDS011;7649;52.084;7.478;2023-11-21T02:00:07;15.43;;;11.33;;
15096;SDS011;7649;52.084;7.478;2023-11-21T02:02:42;17.70;;;13.47;;
15096;SDS011;7649;52.084;7.478;2023-11-21T02:05:11;21.83;;;15.07;;
15096;SDS011;7649;52.084;7.478;2023-11-21T02:07:40;19.43;;;14.07;;
15096;SDS011;7649;52.084;7.478;2023-11-21T02:10:09;21.97;;;14.90;;
15096;SDS011;7649;52.084;7.478;2023-11-21T02:12:42;23.50;;;14.70;;
15096;SDS011;7649;52.084;7.478;2023-11-21T02:15:11;21.20;;;14.97;;
15096;SDS011;7649;52.084;7.478;2023-11-21T02:17:45;23.83;;;15.47;;
15096;SDS011;7649;52.084;7.478;2023-11-21T02:20:18;21.67;;;14.63;;
15096;SDS011;7649;52.084;7.478;2023-11-21T02:22:50;22.77;;;15.97;;
15096;SDS011;7649;52.084;7.478;2023-11-21T02:25:24;23.63;;;16.10;;
15096;SDS011;7649;52.084;7.478;2023-11-21T02:27:54;30.73;;;17.73;;
15096;SDS011;7649;52.084;7.478;2023-11-21T02:30:22;26.57;;;17.77;;
15096;SDS011;7649;52.084;7.478;2023-11-21T02:32:54;26.63;;;17.50;;
15096;SDS011;7649;52.084;7.478;2023-11-21T02:35:24;27.23;;;16.77;;
15096;SDS011;7649;52.084;7.478;2023-11-21T02:37:54;27.57;;;17.80;;
15096;SDS011;7649;52.084;7.478;2023-11-21T02:40:25;27.70;;;17.63;;
15096;SDS011;7649;52.084;7.478;2023-11-21T02:42:54;25.50;;;17.77;;
15096;SDS011;7649;52.084;7.478;2023-11-21T02:45:25;32.47;;;17.20;;
15096;SDS011;7649;52.084;7.478;2023-11-21T02:47:54;29.33;;;17.83;;
15096;SDS011;7649;52.084;7.478;2023-11-21T02:50:24;27.73;;;17.77;;
15096;SDS011;7649;52.084;7.478;2023-11-21T02:52:55;24.17;;;16.43;;
15096;SDS011;7649;52.084;7.478;2023-11-21T02:55:27;26.33;;;16.67;;
15096;SDS011;7649;52.084;7.478;2023-11-21T02:57:55;27.90;;;17.10;;
15096;SDS011;7649;52.084;7.478;2023-11-21T03:00:24;28.00;;;17.60;;
15096;SDS011;7649;52.084;7.478;2023-11-21T03:02:55;27.90;;;17.13;;
15096;SDS011;7649;52.084;7.478;2023-11-21T03:05:25;26.83;;;16.73;;
15096;SDS011;7649;52.084;7.478;2023-11-21T03:07:59;25.00;;;17.00;;
15096;SDS011;7649;52.084;7.478;2023-11-21T03:10:27;23.20;;;16.73;;
15096;SDS011;7649;52.084;7.478;2023-11-21T03:12:56;26.40;;;17.27;;
15096;SDS011;7649;52.084;7.478;2023-11-21T03:15:24;28.17;;;16.53;;
15096;SDS011;7649;52.084;7.478;2023-11-21T03:17:53;28.03;;;17.37;;
15096;SDS011;7649;52.084;7.478;2023-11-21T03:20:23;28.10;;;16.83;;
15096;SDS011;7649;52.084;7.478;2023-11-21T03:22:52;28.47;;;17.23;;
15096;SDS011;7649;52.084;7.478;2023-11-21T03:25:22;25.37;;;16.50;;
15096;SDS011;7649;52.084;7.478;2023-11-21T03:27:52;28.27;;;17.57;;
15096;SDS011;7649;52.084;7.478;2023-11-21T03:30:20;27.30;;;16.60;;
15096;SDS011;7649;52.084;7.478;2023-11-21T03:32:49;26.77;;;17.00;;
15096;SDS011;7649;52.084;7.478;2023-11-21T03:35:18;31.30;;;18.57;;
15096;SDS011;7649;52.084;7.478;2023-11-21T03:37:47;31.23;;;18.50;;
15096;SDS011;7649;52.084;7.478;2023-11-21T03:40:15;30.83;;;17.17;;
15096;SDS011;7649;52.084;7.478;2023-11-21T03:42:45;28.37;;;18.30;;
15096;SDS011;7649;52.084;7.478;2023-11-21T03:45:14;32.80;;;17.80;;
15096;SDS011;7649;52.084;7.478;2023-11-21T03:47:42;28.00;;;17.17;;
15096;SDS011;7649;52.084;7.478;2023-11-21T03:50:11;29.27;;;16.13;;
15096;SDS011;7649;52.084;7.478;2023-11-21T03:52:39;35.10;;;16.40;;
15096;SDS011;7649;52.084;7.478;2023-11-21T03:55:08;26.67;;;16.13;;
15096;SDS011;7649;52.084;7.478;2023-11-21T03:57:37;31.73;;;18.27;;
15096;SDS011;7649;52.084;7.478;2023-11-21T04:00:08;28.20;;;16.30;;
15096;SDS011;7649;52.084;7.478;2023-11-21T04:02:36;29.33;;;16.10;;
15096;SDS011;7649;52.084;7.478;2023-11-21T04:05:06;27.77;;;16.17;;
15096;SDS011;7649;52.084;7.478;2023-11-21T04:07:35;28.80;;;16.20;;
15096;SDS011;7649;52.084;7.478;2023-11-21T04:10:05;32.30;;;16.90;;
15096;SDS011;7649;52.084;7.478;2023-11-21T04:12:35;28.83;;;16.83;;
15096;SDS011;7649;52.084;7.478;2023-11-21T04:15:03;23.83;;;15.70;;
15096;SDS011;7649;52.084;7.478;2023-11-21T04:17:36;27.33;;;16.60;;
15096;SDS011;7649;52.084;7.478;2023-11-21T04:20:06;24.60;;;16.33;;
15096;SDS011;7649;52.084;7.478;2023-11-21T04:22:37;26.50;;;17.33;;
15096;SDS011;7649;52.084;7.478;2023-11-21T04:25:08;25.20;;;16.30;;
15096;SDS011;7649;52.084;7.478;2023-11-21T04:27:39;33.77;;;18.60;;
15096;SDS011;7649;52.084;7.478;2023-11-21T04:30:10;27.07;;;17.17;;
15096;SDS011;7649;52.084;7.478;2023-11-21T04:32:41;29.13;;;16.77;;
15096;SDS011;7649;52.084;7.478;2023-11-21T04:35:10;27.77;;;16.27;;
15096;SDS011;7649;52.084;7.478;2023-11-21T04:37:39;28.57;;;17.43;;
15096;SDS011;7649;52.084;7.478;2023-11-21T04:40:08;32.50;;;17.10;;
15096;SDS011;7649;52.084;7.478;2023-11-21T04:42:36;29.17;;;16.53;;
15096;SDS011;7649;52.084;7.478;2023-11-21T04:45:05;28.23;;;17.03;;
15096;SDS011;7649;52.084;7.478;2023-11-21T04:47:40;28.70;;;16.10;;
15096;SDS011;7649;52.084;7.478;2023-11-21T04:50:12;26.20;;;17.03;;
15096;SDS011;7649;52.084;7.478;2023-11-21T04:52:40;27.97;;;15.60;;
15096;SDS011;7649;52.084;7.478;2023-11-21T04:55:08;28.83;;;17.13;;
15096;SDS011;7649;52.084;7.478;2023-11-21T04:57:37;26.10;;;17.87;;
15096;SDS011;7649;52.084;7.478;2023-11-21T05:00:08;33.57;;;18.07;;
15096;SDS011;7649;52.084;7.478;2023-11-21T05:02:38;29.90;;;18.30;;
15096;SDS011;7649;52.084;7.478;2023-11-21T05:05:08;28.80;;;18.00;;
15096;SDS011;7649;52.084;7.478;2023-11-21T05:07:38;32.97;;;18.43;;
15096;SDS011;7649;52.084;7.478;2023-11-21T05:10:09;32.47;;;19.07;;
15096;SDS011;7649;52.084;7.478;2023-11-21T05:12:40;31.23;;;19.07;;
15096;SDS011;7649;52.084;7.478;2023-11-21T05:15:09;37.00;;;19.13;;
15096;SDS011;7649;52.084;7.478;2023-11-21T05:17:40;30.93;;;18.93;;
15096;SDS011;7649;52.084;7.478;2023-11-21T05:20:12;33.90;;;19.40;;
15096;SDS011;7649;52.084;7.478;2023-11-21T05:22:41;36.10;;;19.80;;
15096;SDS011;7649;52.084;7.478;2023-11-21T05:25:12;38.57;;;20.80;;
15096;SDS011;7649;52.084;7.478;2023-11-21T05:27:40;34.57;;;20.50;;
15096;SDS011;7649;52.084;7.478;2023-11-21T05:30:13;36.47;;;19.77;;
15096;SDS011;7649;52.084;7.478;2023-11-21T05:32:41;30.97;;;19.50;;
15096;SDS011;7649;52.084;7.478;2023-11-21T05:35:11;33.40;;;20.13;;
15096;SDS011;7649;52.084;7.478;2023-11-21T05:37:42;34.47;;;19.63;;
15096;SDS011;7649;52.084;7.478;2023-11-21T05:40:12;38.03;;;20.13;;
15096;SDS011;7649;52.084;7.478;2023-11-21T05:42:41;35.47;;;19.17;;
15096;SDS011;7649;52.084;7.478;2023-11-21T05:45:09;33.40;;;19.43;;
15096;SDS011;7649;52.084;7.478;2023-11-21T05:47:39;32.10;;;19.73;;
15096;SDS011;7649;52.084;7.478;2023-11-21T05:50:14;31.33;;;20.30;;
15096;SDS011;7649;52.084;7.478;2023-11-21T05:52:45;36.57;;;21.07;;
15096;SDS011;7649;52.084;7.478;2023-11-21T05:55:14;31.17;;;20.33;;
15096;SDS011;7649;52.084;7.478;2023-11-21T05:57:47;34.87;;;21.17;;
15096;SDS011;7649;52.084;7.478;2023-11-21T06:00:15;35.50;;;20.57;;
15096;SDS011;7649;52.084;7.478;2023-11-21T06:02:47;33.90;;;20.47;;
15096;SDS011;7649;52.084;7.478;2023-11-21T06:05:25;35.80;;;20.40;;
15096;SDS011;7649;52.084;7.478;2023-11-21T06:07:55;35.93;;;20.50;;
15096;SDS011;7649;52.084;7.478;2023-11-21T06:10:26;37.33;;;20.90;;
15096;SDS011;7649;52.084;7.478;2023-11-21T06:12:56;40.33;;;22.40;;
15096;SDS011;7649;52.084;7.478;2023-11-21T06:15:29;40.20;;;21.37;;
15096;SDS011;7649;52.084;7.478;2023-11-21T06:17:59;35.53;;;21.73;;
15096;SDS011;7649;52.084;7.478;2023-11-21T06:20:30;41.63;;;23.13;;
15096;SDS011;7649;52.084;7.478;2023-11-21T06:22:58;40.53;;;24.13;;
15096;SDS011;7649;52.084;7.478;2023-11-21T06:25:30;49.77;;;25.40;;
15096;SDS011;7649;52.084;7.478;2023-11-21T06:27:59;42.70;;;25.03;;
15096;SDS011;7649;52.084;7.478;2023-11-21T06:30:30;49.77;;;25.33;;
15096;SDS011;7649;52.084;7.478;2023-11-21T06:32:59;46.27;;;23.87;;
15096;SDS011;7649;52.084;7.478;2023-11-21T06:35:32;45.57;;;23.53;;
15096;SDS011;7649;52.084;7.478;2023-11-21T06:38:01;43.93;;;22.77;;
15096;SDS011;7649;52.084;7.478;2023-11-21T06:40:35;43.37;;;23.13;;
15096;SDS011;7649;52.084;7.478;2023-11-21T06:43:06;48.00;;;22.80;;
15096;SDS011;7649;52.084;7.478;2023-11-21T06:45:35;47.70;;;24.63;;
15096;SDS011;7649;52.084;7.478;2023-11-21T06:48:05;42.10;;;22.73;;
15096;SDS011;7649;52.084;7.478;2023-11-21T06:50:36;40.60;;;22.10;;
15096;SDS011;7649;52.084;7.478;2023-11-21T06:53:04;44.33;;;23.23;;
15096;SDS011;7649;52.084;7.478;2023-11-21T06:55:37;42.47;;;22.90;;
15096;SDS011;7649;52.084;7.478;2023-11-21T06:58:06;42.70;;;23.03;;
15096;SDS011;7649;52.084;7.478;2023-11-21T07:00:37;42.37;;;22.60;;
15096;SDS011;7649;52.084;7.478;2023-11-21T07:03:06;46.23;;;22.87;;
15096;SDS011;7649;52.084;7.478;2023-11-21T07:05:37;44.03;;;23.17;;
15096;SDS011;7649;52.084;7.478;2023-11-21T07:08:05;42.50;;;22.20;;
15096;SDS011;7649;52.084;7.478;2023-11-21T07:10:34;44.10;;;23.13;;
15096;SDS011;7649;52.084;7.478;2023-11-21T07:13:04;46.10;;;23.93;;
15096;SDS011;7649;52.084;7.478;2023-11-21T07:15:33;40.97;;;22.87;;
15096;SDS011;7649;52.084;7.478;2023-11-21T07:18:02;44.10;;;23.13;;
15096;SDS011;7649;52.084;7.478;2023-11-21T07:20:30;47.60;;;25.20;;
15096;SDS011;7649;52.084;7.478;2023-11-21T07:23:01;50.87;;;25.30;;
15096;SDS011;7649;52.084;7.478;2023-11-21T07:25:30;49.77;;;26.50;;
15096;SDS011;7649;52.084;7.478;2023-11-21T07:28:00;48.30;;;24.90;;
15096;SDS011;7649;52.084;7.478;2023-11-21T07:30:32;51.97;;;25.37;;
15096;SDS011;7649;52.084;7.478;2023-11-21T07:33:02;49.20;;;24.33;;
15096;SDS011;7649;52.084;7.478;2023-11-21T07:35:32;54.43;;;25.47;;
15096;SDS011;7649;52.084;7.478;2023-11-21T07:38:05;52.53;;;28.67;;
15096;SDS011;7649;52.084;7.478;2023-11-21T07:40:34;55.23;;;26.87;;
15096;SDS011;7649;52.084;7.478;2023-11-21T07:43:03;50.17;;;24.57;;
15096;SDS011;7649;52.084;7.478;2023-11-21T07:45:34;41.30;;;24.27;;
15096;SDS011;7649;52.084;7.478;2023-11-21T07:48:04;45.10;;;25.20;;
15096;SDS011;7649;52.084;7.478;2023-11-21T07:50:34;49.87;;;24.77;;
15096;SDS011;7649;52.084;7.478;2023-11-21T07:53:02;42.40;;;22.77;;
15096;SDS011;7649;52.084;7.478;2023-11-21T07:55:33;41.83;;;23.37;;
15096;SDS011;7649;52.084;7.478;2023-11-21T07:58:02;45.07;;;23.53;;
15096;SDS011;7649;52.084;7.478;2023-11-21T08:00:31;45.40;;;24.33;;
15096;SDS011;7649;52.084;7.478;2023-11-21T08:03:01;49.63;;;25.13;;
15096;SDS011;7649;52.084;7.478;2023-11-21T08:05:30;49.03;;;25.10;;
15096;SDS011;7649;52.084;7.478;2023-11-21T08:08:03;43.63;;;24.23;;
15096;SDS011;7649;52.084;7.478;2023-11-21T08:10:31;40.77;;;23.00;;
15096;SDS011;7649;52.084;7.478;2023-11-21T08:13:01;36.37;;;21.97;;
15096;SDS011;7649;52.084;7.478;2023-11-21T08:15:41;35.60;;;20.83;;
15096;SDS011;7649;52.084;7.478;2023-11-21T08:18:13;34.27;;;20.87;;
15096;SDS011;7649;52.084;7.478;2023-11-21T08:20:47;34.77;;;20.03;;
15096;SDS011;7649;52.084;7.478;2023-11-21T08:23:22;33.37;;;18.77;;
15096;SDS011;7649;52.084;7.478;2023-11-21T08:25:52;30.33;;;19.47;;
15096;SDS011;7649;52.084;7.478;2023-11-21T08:28:33;30.37;;;19.80;;
15096;SDS011;7649;52.084;7.478;2023-11-21T08:31:01;30.00;;;19.30;;
15096;SDS011;7649;52.084;7.478;2023-11-21T08:33:31;32.27;;;18.97;;
15096;SDS011;7649;52.084;7.478;2023-11-21T08:36:00;28.07;;;18.43;;
15096;SDS011;7649;52.084;7.478;2023-11-21T08:38:29;27.30;;;17.47;;
15096;SDS011;7649;52.084;7.478;2023-11-21T08:40:57;31.90;;;19.43;;
15096;SDS011;7649;52.084;7.478;2023-11-21T08:43:26;29.40;;;18.90;;
15096;SDS011;7649;52.084;7.478;2023-11-21T08:45:56;28.63;;;18.97;;
15096;SDS011;7649;52.084;7.478;2023-11-21T08:48:25;28.70;;;18.50;;
15096;SDS011;7649;52.084;7.478;2023-11-21T08:50:56;31.67;;;18.83;;
15096;SDS011;7649;52.084;7.478;2023-11-21T08:53:24;30.70;;;19.07;;
15096;SDS011;7649;52.084;7.478;2023-11-21T08:55:53;28.73;;;18.87;;
15096;SDS011;7649;52.084;7.478;2023-11-21T08:58:21;32.87;;;20.27;;
15096;SDS011;7649;52.084;7.478;2023-11-21T09:00:50;31.60;;;18.93;;
15096;SDS011;7649;52.084;7.478;2023-11-21T09:03:24;35.17;;;20.53;;
15096;SDS011;7649;52.084;7.478;2023-11-21T09:05:53;27.73;;;19.53;;
15096;SDS011;7649;52.084;7.478;2023-11-21T09:08:22;30.30;;;21.50;;
15096;SDS011;7649;52.084;7.478;2023-11-21T09:10:51;32.67;;;20.93;;
15096;SDS011;7649;52.084;7.478;2023-11-21T09:13:19;32.43;;;21.57;;
15096;SDS011;7649;52.084;7.478;2023-11-21T09:15:51;32.03;;;19.47;;
15096;SDS011;7649;52.084;7.478;2023-11-21T09:18:23;30.47;;;19.27;;
15096;SDS011;7649;52.084;7.478;2023-11-21T09:20:53;28.67;;;19.87;;
15096;SDS011;7649;52.084;7.478;2023-11-21T09:23:21;29.50;;;20.53;;
15096;SDS011;7649;52.084;7.478;2023-11-21T09:25:50;29.07;;;20.03;;
15096;SDS011;7649;52.084;7.478;2023-11-21T09:28:21;33.00;;;21.53;;
15096;SDS011;7649;52.084;7.478;2023-11-21T09:30:49;28.57;;;19.23;;
15096;SDS011;7649;52.084;7.478;2023-11-21T09:33:17;26.53;;;18.20;;
15096;SDS011;7649;52.084;7.478;2023-11-21T09:35:50;28.47;;;19.33;;
15096;SDS011;7649;52.084;7.478;2023-11-21T09:38:19;25.97;;;18.70;;
15096;SDS011;7649;52.084;7.478;2023-11-21T09:40:47;28.00;;;18.80;;
15096;SDS011;7649;52.084;7.478;2023-11-21T09:43:16;24.83;;;17.60;;
15096;SDS011;7649;52.084;7.478;2023-11-21T09:45:45;24.37;;;17.47;;
15096;SDS011;7649;52.084;7.478;2023-11-21T09:48:14;25.50;;;17.57;;
15096;SDS011;7649;52.084;7.478;2023-11-21T09:50:46;22.33;;;16.00;;
15096;SDS011;7649;52.084;7.478;2023-11-21T09:53:20;21.13;;;16.13;;
15096;SDS011;7649;52.084;7.478;2023-11-21T09:55:51;22.13;;;16.17;;
15096;SDS011;7649;52.084;7.478;2023-11-21T09:58:20;24.23;;;16.33;;
15096;SDS011;7649;52.084;7.478;2023-11-21T10:00:53;25.43;;;17.77;;
15096;SDS011;7649;52.084;7.478;2023-11-21T10:03:22;23.97;;;15.60;;
15096;SDS011;7649;52.084;7.478;2023-11-21T10:05:51;24.33;;;16.17;;
15096;SDS011;7649;52.084;7.478;2023-11-21T10:08:22;22.67;;;16.17;;
15096;SDS011;7649;52.084;7.478;2023-11-21T10:11:11;25.23;;;16.10;;
15096;SDS011;7649;52.084;7.478;2023-11-21T10:13:40;24.37;;;16.70;;
15096;SDS011;7649;52.084;7.478;2023-11-21T10:16:09;24.03;;;16.47;;
15096;SDS011;7649;52.084;7.478;2023-11-21T10:18:38;25.33;;;16.63;;
15096;SDS011;7649;52.084;7.478;2023-11-21T10:21:12;25.40;;;17.13;;
15096;SDS011;7649;52.084;7.478;2023-11-21T10:23:42;24.40;;;16.33;;
15096;SDS011;7649;52.084;7.478;2023-11-21T10:26:11;24.20;;;15.80;;
15096;SDS011;7649;52.084;7.478;2023-11-21T10:28:56;23.57;;;15.50;;
15096;SDS011;7649;52.084;7.478;2023-11-21T10:31:26;21.93;;;14.83;;
15096;SDS011;7649;52.084;7.478;2023-11-21T10:33:57;21.83;;;15.60;;
15096;SDS011;7649;52.084;7.478;2023-11-21T10:36:39;26.07;;;19.07;;
15096;SDS011;7649;52.084;7.478;2023-11-21T10:39:09;26.07;;;16.50;;
15096;SDS011;7649;52.084;7.478;2023-11-21T10:41:43;19.60;;;15.10;;
15096;SDS011;7649;52.084;7.478;2023-11-21T10:44:18;23.10;;;16.50;;
15096;SDS011;7649;52.084;7.478;2023-11-21T10:46:48;20.93;;;15.87;;
15096;SDS011;7649;52.084;7.478;2023-11-21T10:49:18;19.57;;;13.67;;
15096;SDS011;7649;52.084;7.478;2023-11-21T10:51:47;17.67;;;13.80;;
15096;SDS011;7649;52.084;7.478;2023-11-21T10:54:19;17.53;;;14.10;;
15096;SDS011;7649;52.084;7.478;2023-11-21T10:56:48;18.77;;;13.63;;
15096;SDS011;7649;52.084;7.478;2023-11-21T10:59:17;20.73;;;13.53;;
15096;SDS011;7649;52.084;7.478;2023-11-21T11:01:52;20.67;;;13.23;;
15096;SDS011;7649;52.084;7.478;2023-11-21T11:04:22;17.43;;;12.57;;
15096;SDS011;7649;52.084;7.478;2023-11-21T11:06:54;17.23;;;12.67;;
15096;SDS011;7649;52.084;7.478;2023-11-21T11:09:33;18.97;;;12.83;;
15096;SDS011;7649;52.084;7.478;2023-11-21T11:12:02;17.43;;;12.77;;
15096;SDS011;7649;52.084;7.478;2023-11-21T11:14:32;16.23;;;11.47;;
15096;SDS011;7649;52.084;7.478;2023-11-21T11:17:01;14.60;;;11.27;;
15096;SDS011;7649;52.084;7.478;2023-11-21T11:19:32;13.63;;;11.13;;
15096;SDS011;7649;52.084;7.478;2023-11-21T11:22:05;14.13;;;11.30;;
15096;SDS011;7649;52.084;7.478;2023-11-21T11:24:47;16.80;;;11.80;;
15096;SDS011;7649;52.084;7.478;2023-11-21T11:27:24;13.50;;;10.93;;
15096;SDS011;7649;52.084;7.478;2023-11-21T11:29:58;15.60;;;10.97;;
15096;SDS011;7649;52.084;7.478;2023-11-21T11:32:36;12.53;;;10.70;;
15096;SDS011;7649;52.084;7.478;2023-11-21T11:35:10;13.07;;;10.63;;
15096;SDS011;7649;52.084;7.478;2023-11-21T11:37:43;13.13;;;10.17;;
15096;SDS011;7649;52.084;7.478;2023-11-21T11:40:16;12.73;;;10.33;;
15096;SDS011;7649;52.084;7.478;2023-11-21T11:42:55;14.33;;;10.67;;
15096;SDS011;7649;52.084;7.478;2023-11-21T11:45:26;11.77;;;9.63;;
15096;SDS011;7649;52.084;7.478;2023-11-21T11:48:02;10.70;;;9.60;;
15096;SDS011;7649;52.084;7.478;2023-11-21T11:50:31;12.63;;;10.37;;
15096;SDS011;7649;52.084;7.478;2023-11-21T11:53:13;12.80;;;10.07;;
15096;SDS011;7649;52.084;7.478;2023-11-21T11:55:43;12.97;;;10.50;;
15096;SDS011;7649;52.084;7.478;2023-11-21T11:58:12;13.97;;;10.17;;
15096;SDS011;7649;52.084;7.478;2023-11-21T12:00:41;10.43;;;8.73;;
15096;SDS011;7649;52.084;7.478;2023-11-21T12:03:13;10.17;;;9.10;;
15096;SDS011;7649;52.084;7.478;2023-11-21T12:05:42;8.33;;;7.53;;
15096;SDS011;7649;52.084;7.478;2023-11-21T12:08:11;8.23;;;7.37;;
15096;SDS011;7649;52.084;7.478;2023-11-21T12:10:40;9.17;;;8.03;;
15096;SDS011;7649;52.084;7.478;2023-11-21T12:13:11;10.00;;;9.00;;
15096;SDS011;7649;52.084;7.478;2023-11-21T12:15:41;10.70;;;8.80;;
15096;SDS011;7649;52.084;7.478;2023-11-21T12:18:12;10.23;;;8.87;;
15096;SDS011;7649;52.084;7.478;2023-11-21T12:20:41;11.77;;;9.33;;
15096;SDS011;7649;52.084;7.478;2023-11-21T12:23:13;9.23;;;8.13;;
15096;SDS011;7649;52.084;7.478;2023-11-21T12:25:45;9.67;;;8.77;;
15096;SDS011;7649;52.084;7.478;2023-11-21T12:28:17;12.63;;;9.07;;
15096;SDS011;7649;52.084;7.478;2023-11-21T12:30:45;9.63;;;8.67;;
15096;SDS011;7649;52.084;7.478;2023-11-21T12:33:15;8.63;;;7.73;;
15096;SDS011;7649;52.084;7.478;2023-11-21T12:35:44;8.97;;;8.07;;
15096;SDS011;7649;52.084;7.478;2023-11-21T12:38:13;9.57;;;8.57;;
15096;SDS011;7649;52.084;7.478;2023-11-21T12:40:44;9.30;;;8.30;;
15096;SDS011;7649;52.084;7.478;2023-11-21T12:43:14;9.67;;;8.33;;
15096;SDS011;7649;52.084;7.478;2023-11-21T12:45:44;9.27;;;8.37;;
15096;SDS011;7649;52.084;7.478;2023-11-21T12:48:13;10.50;;;8.87;;
15096;SDS011;7649;52.084;7.478;2023-11-21T12:50:43;10.20;;;9.20;;
15096;SDS011;7649;52.084;7.478;2023-11-21T12:53:15;10.07;;;9.10;;
15096;SDS011;7649;52.084;7.478;2023-11-21T12:55:44;9.30;;;8.40;;
15096;SDS011;7649;52.084;7.478;2023-11-21T12:58:17;9.80;;;8.80;;
15096;SDS011;7649;52.084;7.478;2023-11-21T13:00:48;9.03;;;8.13;;
15096;SDS011;7649;52.084;7.478;2023-11-21T13:03:18;8.57;;;7.57;;
15096;SDS011;7649;52.084;7.478;2023-11-21T13:05:53;9.73;;;7.63;;
15096;SDS011;7649;52.084;7.478;2023-11-21T13:08:24;8.13;;;7.33;;
15096;SDS011;7649;52.084;7.478;2023-11-21T13:10:53;8.00;;;7.33;;
15096;SDS011;7649;52.084;7.478;2023-11-21T13:13:24;9.23;;;8.33;;
15096;SDS011;7649;52.084;7.478;2023-11-21T13:15:57;9.73;;;8.40;;
15096;SDS011;7649;52.084;7.478;2023-11-21T13:18:31;9.90;;;9.00;;
15096;SDS011;7649;52.084;7.478;2023-11-21T13:21:00;10.83;;;9.73;;
15096;SDS011;7649;52.084;7.478;2023-11-21T13:23:34;11.33;;;10.23;;
15096;SDS011;7649;52.084;7.478;2023-11-21T13:26:03;14.03;;;11.23;;
15096;SDS011;7649;52.084;7.478;2023-11-21T13:28:33;12.03;;;10.57;;
15096;SDS011;7649;52.084;7.478;2023-11-21T13:31:03;12.63;;;11.07;;
15096;SDS011;7649;52.084;7.478;2023-11-21T13:33:48;12.67;;;10.77;;
15096;SDS011;7649;52.084;7.478;2023-11-21T13:36:21;12.33;;;11.13;;
15096;SDS011;7649;52.084;7.478;2023-11-21T13:38:50;13.87;;;10.77;;
15096;SDS011;7649;52.084;7.478;2023-11-21T13:41:20;11.13;;;9.93;;
15096;SDS011;7649;52.084;7.478;2023-11-21T13:43:58;11.33;;;10.23;;
15096;SDS011;7649;52.084;7.478;2023-11-21T13:46:38;11.40;;;9.93;;
15096;SDS011;7649;52.084;7.478;2023-11-21T13:49:07;12.27;;;10.03;;
15096;SDS011;7649;52.084;7.478;2023-11-21T13:51:36;11.00;;;9.90;;
15096;SDS011;7649;52.084;7.478;2023-11-21T13:54:09;11.97;;;9.57;;
15096;SDS011;7649;52.084;7.478;2023-11-21T13:56:42;10.13;;;9.13;;
15096;SDS011;7649;52.084;7.478;2023-11-21T13:59:12;11.30;;;9.47;;
15096;SDS011;7649;52.084;7.478;2023-11-21T14:01:49;9.03;;;8.10;;
15096;SDS011;7649;52.084;7.478;2023-11-21T14:04:23;10.00;;;8.70;;
15096;SDS011;7649;52.084;7.478;2023-11-21T14:07:09;8.70;;;7.90;;
15096;SDS011;7649;52.084;7.478;2023-11-21T14:09:51;9.37;;;8.37;;
15096;SDS011;7649;52.084;7.478;2023-11-21T14:12:19;8.73;;;7.87;;
15096;SDS011;7649;52.084;7.478;2023-11-21T14:14:48;8.53;;;7.37;;
15096;SDS011;7649;52.084;7.478;2023-11-21T14:17:18;11.20;;;7.50;;
15096;SDS011;7649;52.084;7.478;2023-11-21T14:19:50;8.53;;;7.63;;
15096;SDS011;7649;52.084;7.478;2023-11-21T14:22:19;7.90;;;7.10;;
15096;SDS011;7649;52.084;7.478;2023-11-21T14:24:47;11.43;;;7.03;;
15096;SDS011;7649;52.084;7.478;2023-11-21T14:27:18;13.03;;;7.30;;
15096;SDS011;7649;52.084;7.478;2023-11-21T14:29:47;9.10;;;6.40;;
15096;SDS011;7649;52.084;7.478;2023-11-21T14:32:15;7.93;;;6.80;;
15096;SDS011;7649;52.084;7.478;2023-11-21T14:34:45;7.67;;;6.30;;
15096;SDS011;7649;52.084;7.478;2023-11-21T14:37:15;22.30;;;7.10;;
15096;SDS011;7649;52.084;7.478;2023-11-21T14:39:46;7.87;;;6.20;;
15096;SDS011;7649;52.084;7.478;2023-11-21T14:42:16;16.93;;;7.47;;
15096;SDS011;7649;52.084;7.478;2023-11-21T14:44:51;7.80;;;7.00;;
15096;SDS011;7649;52.084;7.478;2023-11-21T14:47:21;9.73;;;6.50;;
15096;SDS011;7649;52.084;7.478;2023-11-21T14:49:55;7.00;;;6.33;;
15096;SDS011;7649;52.084;7.478;2023-11-21T14:52:26;15.93;;;7.13;;
15096;SDS011;7649;52.084;7.478;2023-11-21T14:55:01;11.73;;;6.60;;
15096;SDS011;7649;52.084;7.478;2023-11-21T14:57:57;8.27;;;6.77;;